Uybat, Russia
Current Conditions -  °F | °C
As of 4:00 PM on Monday 24 Nov 2014 (Local Time) from UNAA Reporting Station
Overcast Overcast  
Wind Chill: 19°   Ceiling: 10000
Heat Index: 30°   Visibility: 6mi
Dew Point: 14°   Wind: 16mph
Humidity: 51%   Direction: 250°WSW
Pressure: 29.56"   Gusts: NA
Location:  53.73°N, 90.37°E
Report Text: UNAA 240900Z 25007MPS 9999 SCT030CB OVC100 M01/M10 Q1001 NOSIGRMK QFE728 20190055
Loading
Personal Weather Stations






























Interactive Weather Map New forecast layout! Learn more

10-Day Weather Forecast

Advertisements
Track Severe Weather on mobile